• Join FlightAware (Why Join?)
  • Login
  • US Flag 
 
07:31AM EST


 

Airport Tracker/Info


-or-


 

Live Flight TrackerFlight Track Log ✈ N2193W ✈ 02-Jul-2013 ✈ KACT - KDWH

Flight Track Log - Related Links

Times and Time Zones

All times are in EDT time to prevent confusion due to time zone crossing. See the N2193W flight status page for this flight to view local times or setup timezone preferences in your user account.

Time Position Orientation Groundspeed Altitude Reporting Facility
EDT Latitude Longitude Course Direction KTS MPH feet Rate Location/Type
10:18AM 31.6294 -97.2064 137° Southeast 97 112 1,500  Level Houston Center
10:19AM 31.6033 -97.1814 141° Southeast 121 139 2,400 720 Climbing Houston Center
10:20AM 31.5778 -97.1567 141° Southeast 119 137 3,100 660 Climbing Houston Center
10:21AM 31.5517 -97.1283 137° Southeast 122 140 3,800 660 Climbing Houston Center
10:22AM 31.5292 -97.0961 129° Southeast 124 143 4,500 720 Climbing Houston Center
10:23AM 31.4978 -97.0656 140° Southeast 125 144 5,300 480 Climbing Houston Center
10:24AM 31.4529 -97.0544 137° Southeast  Level Estimated
10:24AM 31.4686 -97.0378 141° Southeast 128 147 5,500  Level Houston Center
10:25AM 31.4422 -97.0022 131° Southeast 135 155 5,500  Level Houston Center
10:26AM 31.4111 -96.9692 138° Southeast 143 165 5,500 -60 Level Houston Center
10:27AM 31.3794 -96.9361 138° Southeast 147 169 5,400 -60 Descending Houston Center
10:28AM 31.3483 -96.9017 137° Southeast 150 173 5,400  Level Houston Center
10:29AM 31.3164 -96.8683 138° Southeast 151 174 5,400  Level Houston Center
10:30AM 31.2847 -96.8350 138° Southeast 152 175 5,500  Climbing Houston Center
10:32AM 31.2494 -96.7961 137° Southeast 150 173 5,500  Level Houston Center
10:33AM 31.2178 -96.7633 138° Southeast 149 171 5,500  Level Houston Center
10:34AM 31.1867 -96.7297 137° Southeast 149 171 5,500  Level Houston Center
10:35AM 31.1553 -96.6956 137° Southeast 152 175 5,500  Level Houston Center
10:36AM 31.1247 -96.6636 138° Southeast 149 171 5,500  Level Houston Center
10:37AM 31.0936 -96.6308 138° Southeast 148 170 5,500  Level Houston Center
10:38AM 31.0633 -96.5975 137° Southeast 149 171 5,500  Level Houston Center
10:39AM 31.0269 -96.5597 138° Southeast 149 171 5,500  Level Houston Center
10:40AM 30.9964 -96.5272 138° Southeast 147 169 5,500  Level Houston Center
10:41AM 30.9661 -96.4950 138° Southeast 147 169 5,500  Level Houston Center
10:42AM 30.9272 -96.4575 140° Southeast 148 170 5,500  Level Houston Center
10:43AM 30.8950 -96.4219 137° Southeast 150 173 5,500  Level Houston Center
10:44AM 30.8653 -96.3914 139° Southeast 150 173 5,500  Level Houston Center
10:45AM 30.8414 -96.3642 136° Southeast 150 173 5,500  Level Houston Center
10:46AM 30.8108 -96.3325 138° Southeast 147 169 5,500  Level Houston Center
10:47AM 30.7664 -96.2881 139° Southeast 149 171 5,500  Level Houston Center
10:48AM 30.7444 -96.2619 134° Southeast 144 166 5,500  Level Houston Center
10:49AM 30.7044 -96.2247 141° Southeast 148 170 5,500  Level Houston Center
10:50AM 30.6789 -96.1961 136° Southeast 147 169 5,500  Level Houston Center
10:51AM 30.6508 -96.1636 135° Southeast 149 171 5,500  Level Houston Center
10:52AM 30.6206 -96.1322 138° Southeast 146 168 5,500  Level Houston Center
10:53AM 30.5906 -96.1006 138° Southeast 144 166 5,500  Level Houston Center
10:54AM 30.5544 -96.0644 139° Southeast 145 167 5,500 -300 Level Houston Center
10:55AM 30.5222 -96.0319 139° Southeast 155 178 5,000 -480 Descending Houston Center
10:56AM 30.4953 -96.0017 136° Southeast 151 174 4,500 -240 Descending Houston Center
10:57AM 30.4578 -95.9647 140° Southeast 145 167 4,500  Level Houston Center
10:58AM 30.4286 -95.9328 137° Southeast 144 166 4,500  Level Houston Center
10:59AM 30.3992 -95.9031 139° Southeast 141 162 4,500  Level Houston Center
11:00AM 30.3678 -95.8706 138° Southeast 141 162 4,500  Level Houston Center
11:02AM 30.3356 -95.8381 139° Southeast 142 163 4,500  Level Houston Center
11:03AM 30.3053 -95.8053 137° Southeast 142 163 4,500 -240 Level Houston Center
11:03AM 30.2778 -95.7769 138° Southeast 149 171 4,100 -480 Descending Houston Center
11:04AM 30.2456 -95.7444 139° Southeast 150 173 3,600 -480 Descending Houston Center
11:06AM 30.2108 -95.7097 139° Southeast 150 173 3,100 -540 Descending Houston Center
11:07AM 30.1850 -95.6789 134° Southeast 140 161 2,600 -480 Descending Houston Center
11:08AM 30.1531 -95.6489 141° Southeast 134 154 2,200 -360 Descending Houston Center
11:09AM 30.1278 -95.6231 139° Southeast 135 155 1,900 -420 Descending Houston Center
11:10AM 30.0981 -95.5975 143° Southeast 135 155 1,500 -240 Descending Houston Center
11:11AM 30.0614 -95.5850 164° South 132 152 1,500 -240 Level Houston Center
11:12AM 30.0333 -95.5761 165° South 107 123 1,100 -480 Descending Houston Center
11:13AM 30.0372 -95.5517 80° East 99 114 600 -540 Descending Houston Center